sensor_id;sensor_type;location;lat;lon;timestamp;P1;durP1;ratioP1;P2;durP2;ratioP2
18732;SDS011;9495;51.210;2.934;2023-04-24T00:00:09;0.27;;;0.27;;
18732;SDS011;9495;51.210;2.934;2023-04-24T00:02:38;0.60;;;0.47;;
18732;SDS011;9495;51.210;2.934;2023-04-24T00:05:07;1.53;;;1.17;;
18732;SDS011;9495;51.210;2.934;2023-04-24T00:07:36;0.33;;;0.27;;
18732;SDS011;9495;51.210;2.934;2023-04-24T00:10:05;0.97;;;0.97;;
18732;SDS011;9495;51.210;2.934;2023-04-24T00:12:35;0.93;;;0.50;;
18732;SDS011;9495;51.210;2.934;2023-04-24T00:15:04;1.03;;;0.83;;
18732;SDS011;9495;51.210;2.934;2023-04-24T00:17:33;0.53;;;0.53;;
18732;SDS011;9495;51.210;2.934;2023-04-24T00:20:02;0.20;;;0.20;;
18732;SDS011;9495;51.210;2.934;2023-04-24T00:22:33;0.93;;;0.63;;
18732;SDS011;9495;51.210;2.934;2023-04-24T00:25:01;4.03;;;1.20;;
18732;SDS011;9495;51.210;2.934;2023-04-24T00:27:30;1.80;;;0.80;;
18732;SDS011;9495;51.210;2.934;2023-04-24T00:30:00;0.60;;;0.60;;
18732;SDS011;9495;51.210;2.934;2023-04-24T00:32:28;1.27;;;1.17;;
18732;SDS011;9495;51.210;2.934;2023-04-24T00:34:57;0.30;;;0.30;;
18732;SDS011;9495;51.210;2.934;2023-04-24T00:37:26;1.30;;;1.20;;
18732;SDS011;9495;51.210;2.934;2023-04-24T00:39:55;0.73;;;0.73;;
18732;SDS011;9495;51.210;2.934;2023-04-24T00:42:23;0.73;;;0.53;;
18732;SDS011;9495;51.210;2.934;2023-04-24T00:44:52;0.30;;;0.30;;
18732;SDS011;9495;51.210;2.934;2023-04-24T00:47:23;1.33;;;0.67;;
18732;SDS011;9495;51.210;2.934;2023-04-24T00:49:52;0.60;;;0.60;;
18732;SDS011;9495;51.210;2.934;2023-04-24T00:52:21;0.53;;;0.47;;
18732;SDS011;9495;51.210;2.934;2023-04-24T00:54:50;1.30;;;0.60;;
18732;SDS011;9495;51.210;2.934;2023-04-24T00:57:19;0.93;;;0.93;;
18732;SDS011;9495;51.210;2.934;2023-04-24T00:59:48;3.70;;;0.70;;
18732;SDS011;9495;51.210;2.934;2023-04-24T01:02:16;1.80;;;0.87;;
18732;SDS011;9495;51.210;2.934;2023-04-24T01:04:47;1.13;;;0.50;;
18732;SDS011;9495;51.210;2.934;2023-04-24T01:07:17;0.13;;;0.13;;
18732;SDS011;9495;51.210;2.934;2023-04-24T01:09:47;0.43;;;0.40;;
18732;SDS011;9495;51.210;2.934;2023-04-24T01:12:17;1.30;;;0.70;;
18732;SDS011;9495;51.210;2.934;2023-04-24T01:14:46;0.07;;;0.07;;
18732;SDS011;9495;51.210;2.934;2023-04-24T01:17:14;7.17;;;0.67;;
18732;SDS011;9495;51.210;2.934;2023-04-24T01:19:43;0.10;;;0.10;;
18732;SDS011;9495;51.210;2.934;2023-04-24T01:22:14;0.57;;;0.10;;
18732;SDS011;9495;51.210;2.934;2023-04-24T01:24:43;0.00;;;0.00;;
18732;SDS011;9495;51.210;2.934;2023-04-24T01:27:12;0.13;;;0.13;;
18732;SDS011;9495;51.210;2.934;2023-04-24T01:29:41;0.37;;;0.37;;
18732;SDS011;9495;51.210;2.934;2023-04-24T01:32:09;0.10;;;0.10;;
18732;SDS011;9495;51.210;2.934;2023-04-24T01:34:38;0.10;;;0.10;;
18732;SDS011;9495;51.210;2.934;2023-04-24T01:37:07;0.20;;;0.20;;
18732;SDS011;9495;51.210;2.934;2023-04-24T01:39:37;0.10;;;0.10;;
18732;SDS011;9495;51.210;2.934;2023-04-24T01:42:06;12.97;;;5.53;;
18732;SDS011;9495;51.210;2.934;2023-04-24T01:44:35;14.83;;;6.00;;
18732;SDS011;9495;51.210;2.934;2023-04-24T01:47:03;14.30;;;6.70;;
18732;SDS011;9495;51.210;2.934;2023-04-24T01:49:33;14.13;;;6.70;;
18732;SDS011;9495;51.210;2.934;2023-04-24T01:52:02;15.70;;;7.27;;
18732;SDS011;9495;51.210;2.934;2023-04-24T01:54:30;17.23;;;7.80;;
18732;SDS011;9495;51.210;2.934;2023-04-24T01:56:59;16.83;;;7.20;;
18732;SDS011;9495;51.210;2.934;2023-04-24T01:59:29;19.43;;;8.07;;
18732;SDS011;9495;51.210;2.934;2023-04-24T02:01:59;11.13;;;5.07;;
18732;SDS011;9495;51.210;2.934;2023-04-24T02:04:27;11.80;;;6.40;;
18732;SDS011;9495;51.210;2.934;2023-04-24T02:06:56;20.27;;;9.43;;
18732;SDS011;9495;51.210;2.934;2023-04-24T02:09:24;22.93;;;9.70;;
18732;SDS011;9495;51.210;2.934;2023-04-24T02:11:53;14.67;;;7.50;;
18732;SDS011;9495;51.210;2.934;2023-04-24T02:14:24;25.87;;;11.87;;
18732;SDS011;9495;51.210;2.934;2023-04-24T02:16:52;22.43;;;12.27;;
18732;SDS011;9495;51.210;2.934;2023-04-24T02:19:21;23.00;;;12.17;;
18732;SDS011;9495;51.210;2.934;2023-04-24T02:21:49;25.37;;;13.67;;
18732;SDS011;9495;51.210;2.934;2023-04-24T02:24:18;32.77;;;16.60;;
18732;SDS011;9495;51.210;2.934;2023-04-24T02:26:46;23.33;;;12.00;;
18732;SDS011;9495;51.210;2.934;2023-04-24T02:29:15;26.43;;;14.67;;
18732;SDS011;9495;51.210;2.934;2023-04-24T02:31:45;18.37;;;10.97;;
18732;SDS011;9495;51.210;2.934;2023-04-24T02:34:14;28.10;;;14.20;;
18732;SDS011;9495;51.210;2.934;2023-04-24T02:36:42;24.17;;;13.70;;
18732;SDS011;9495;51.210;2.934;2023-04-24T02:39:11;24.97;;;13.17;;
18732;SDS011;9495;51.210;2.934;2023-04-24T02:41:42;29.17;;;13.43;;
18732;SDS011;9495;51.210;2.934;2023-04-24T02:44:11;25.63;;;13.80;;
18732;SDS011;9495;51.210;2.934;2023-04-24T02:46:40;24.87;;;14.67;;
18732;SDS011;9495;51.210;2.934;2023-04-24T02:49:10;20.77;;;11.17;;
18732;SDS011;9495;51.210;2.934;2023-04-24T02:51:38;24.17;;;14.33;;
18732;SDS011;9495;51.210;2.934;2023-04-24T02:54:08;23.03;;;14.10;;
18732;SDS011;9495;51.210;2.934;2023-04-24T02:56:37;19.80;;;11.47;;
18732;SDS011;9495;51.210;2.934;2023-04-24T02:59:05;22.93;;;11.27;;
18732;SDS011;9495;51.210;2.934;2023-04-24T03:01:34;20.07;;;10.80;;
18732;SDS011;9495;51.210;2.934;2023-04-24T03:04:02;22.77;;;12.23;;
18732;SDS011;9495;51.210;2.934;2023-04-24T03:06:32;28.07;;;13.13;;
18732;SDS011;9495;51.210;2.934;2023-04-24T03:09:01;27.73;;;13.70;;
18732;SDS011;9495;51.210;2.934;2023-04-24T03:11:31;29.03;;;13.10;;
18732;SDS011;9495;51.210;2.934;2023-04-24T03:13:59;20.67;;;12.23;;
18732;SDS011;9495;51.210;2.934;2023-04-24T03:16:28;18.63;;;9.03;;
18732;SDS011;9495;51.210;2.934;2023-04-24T03:18:57;14.90;;;8.73;;
18732;SDS011;9495;51.210;2.934;2023-04-24T03:21:25;20.17;;;9.97;;
18732;SDS011;9495;51.210;2.934;2023-04-24T03:23:55;19.33;;;9.80;;
18732;SDS011;9495;51.210;2.934;2023-04-24T03:26:24;17.70;;;8.23;;
18732;SDS011;9495;51.210;2.934;2023-04-24T03:28:52;17.67;;;9.47;;
18732;SDS011;9495;51.210;2.934;2023-04-24T03:31:21;20.53;;;9.93;;
18732;SDS011;9495;51.210;2.934;2023-04-24T03:33:50;13.73;;;9.37;;
18732;SDS011;9495;51.210;2.934;2023-04-24T03:36:18;15.60;;;8.90;;
18732;SDS011;9495;51.210;2.934;2023-04-24T03:38:47;16.67;;;9.30;;
18732;SDS011;9495;51.210;2.934;2023-04-24T03:41:16;15.37;;;9.13;;
18732;SDS011;9495;51.210;2.934;2023-04-24T03:43:45;19.23;;;9.80;;
18732;SDS011;9495;51.210;2.934;2023-04-24T03:46:13;18.50;;;9.23;;
18732;SDS011;9495;51.210;2.934;2023-04-24T03:48:42;17.13;;;9.87;;
18732;SDS011;9495;51.210;2.934;2023-04-24T03:51:10;19.47;;;10.07;;
18732;SDS011;9495;51.210;2.934;2023-04-24T03:53:38;17.30;;;9.87;;
18732;SDS011;9495;51.210;2.934;2023-04-24T03:56:07;21.63;;;10.57;;
18732;SDS011;9495;51.210;2.934;2023-04-24T03:58:37;23.10;;;10.70;;
18732;SDS011;9495;51.210;2.934;2023-04-24T04:01:06;20.40;;;10.63;;
18732;SDS011;9495;51.210;2.934;2023-04-24T04:03:34;17.83;;;10.13;;
18732;SDS011;9495;51.210;2.934;2023-04-24T04:06:03;31.17;;;13.77;;
18732;SDS011;9495;51.210;2.934;2023-04-24T04:08:32;23.53;;;12.27;;
18732;SDS011;9495;51.210;2.934;2023-04-24T04:11:01;33.00;;;16.10;;
18732;SDS011;9495;51.210;2.934;2023-04-24T04:13:30;24.63;;;11.60;;
18732;SDS011;9495;51.210;2.934;2023-04-24T04:16:00;27.33;;;14.03;;
18732;SDS011;9495;51.210;2.934;2023-04-24T04:18:29;24.40;;;13.90;;
18732;SDS011;9495;51.210;2.934;2023-04-24T04:20:57;25.33;;;15.10;;
18732;SDS011;9495;51.210;2.934;2023-04-24T04:23:27;29.23;;;13.93;;
18732;SDS011;9495;51.210;2.934;2023-04-24T04:25:56;24.70;;;13.27;;
18732;SDS011;9495;51.210;2.934;2023-04-24T04:28:25;21.37;;;13.43;;
18732;SDS011;9495;51.210;2.934;2023-04-24T04:30:53;28.80;;;13.50;;
18732;SDS011;9495;51.210;2.934;2023-04-24T04:33:25;26.27;;;17.30;;
18732;SDS011;9495;51.210;2.934;2023-04-24T04:35:53;21.63;;;12.60;;
18732;SDS011;9495;51.210;2.934;2023-04-24T04:38:23;31.03;;;18.27;;
18732;SDS011;9495;51.210;2.934;2023-04-24T04:40:53;36.10;;;15.73;;
18732;SDS011;9495;51.210;2.934;2023-04-24T04:43:23;36.50;;;14.77;;
18732;SDS011;9495;51.210;2.934;2023-04-24T04:45:52;32.23;;;15.70;;
18732;SDS011;9495;51.210;2.934;2023-04-24T04:48:22;24.27;;;12.37;;
18732;SDS011;9495;51.210;2.934;2023-04-24T04:50:53;31.50;;;15.27;;
18732;SDS011;9495;51.210;2.934;2023-04-24T04:53:22;23.43;;;10.23;;
18732;SDS011;9495;51.210;2.934;2023-04-24T04:55:51;25.50;;;12.67;;
18732;SDS011;9495;51.210;2.934;2023-04-24T04:58:19;19.83;;;11.40;;
18732;SDS011;9495;51.210;2.934;2023-04-24T05:00:48;26.37;;;12.30;;
18732;SDS011;9495;51.210;2.934;2023-04-24T05:03:16;22.07;;;11.33;;
18732;SDS011;9495;51.210;2.934;2023-04-24T05:05:48;27.77;;;12.77;;
18732;SDS011;9495;51.210;2.934;2023-04-24T05:08:17;30.13;;;12.20;;
18732;SDS011;9495;51.210;2.934;2023-04-24T05:10:52;23.00;;;9.87;;
18732;SDS011;9495;51.210;2.934;2023-04-24T05:13:21;29.33;;;11.77;;
18732;SDS011;9495;51.210;2.934;2023-04-24T05:16:05;19.30;;;10.43;;
18732;SDS011;9495;51.210;2.934;2023-04-24T05:18:34;24.47;;;9.93;;
18732;SDS011;9495;51.210;2.934;2023-04-24T05:21:04;21.70;;;10.00;;
18732;SDS011;9495;51.210;2.934;2023-04-24T05:23:33;27.57;;;11.73;;
18732;SDS011;9495;51.210;2.934;2023-04-24T05:26:01;23.27;;;10.30;;
18732;SDS011;9495;51.210;2.934;2023-04-24T05:28:33;22.13;;;10.73;;
18732;SDS011;9495;51.210;2.934;2023-04-24T05:31:03;23.33;;;9.97;;
18732;SDS011;9495;51.210;2.934;2023-04-24T05:33:32;20.07;;;8.63;;
18732;SDS011;9495;51.210;2.934;2023-04-24T05:36:01;24.63;;;8.30;;
18732;SDS011;9495;51.210;2.934;2023-04-24T05:38:30;25.83;;;9.07;;
18732;SDS011;9495;51.210;2.934;2023-04-24T05:40:59;25.93;;;8.93;;
18732;SDS011;9495;51.210;2.934;2023-04-24T05:43:27;21.20;;;8.67;;
18732;SDS011;9495;51.210;2.934;2023-04-24T05:45:55;20.70;;;8.43;;
18732;SDS011;9495;51.210;2.934;2023-04-24T05:48:24;19.20;;;9.07;;
18732;SDS011;9495;51.210;2.934;2023-04-24T05:50:52;26.57;;;10.70;;
18732;SDS011;9495;51.210;2.934;2023-04-24T05:53:21;22.07;;;9.57;;
18732;SDS011;9495;51.210;2.934;2023-04-24T05:55:51;25.60;;;10.07;;
18732;SDS011;9495;51.210;2.934;2023-04-24T05:58:19;23.40;;;10.43;;
18732;SDS011;9495;51.210;2.934;2023-04-24T06:00:48;25.90;;;10.20;;
18732;SDS011;9495;51.210;2.934;2023-04-24T06:03:16;26.53;;;9.60;;
18732;SDS011;9495;51.210;2.934;2023-04-24T06:05:45;19.20;;;7.57;;
18732;SDS011;9495;51.210;2.934;2023-04-24T06:08:14;21.97;;;9.23;;
18732;SDS011;9495;51.210;2.934;2023-04-24T06:10:43;23.00;;;9.37;;
18732;SDS011;9495;51.210;2.934;2023-04-24T06:13:12;17.93;;;8.63;;
18732;SDS011;9495;51.210;2.934;2023-04-24T06:15:41;22.57;;;9.40;;
18732;SDS011;9495;51.210;2.934;2023-04-24T06:18:10;24.07;;;8.83;;
18732;SDS011;9495;51.210;2.934;2023-04-24T06:20:39;16.80;;;7.50;;
18732;SDS011;9495;51.210;2.934;2023-04-24T06:23:07;20.63;;;7.80;;
18732;SDS011;9495;51.210;2.934;2023-04-24T06:25:36;28.13;;;8.37;;
18732;SDS011;9495;51.210;2.934;2023-04-24T06:28:05;18.77;;;6.53;;
18732;SDS011;9495;51.210;2.934;2023-04-24T06:30:34;24.37;;;8.57;;
18732;SDS011;9495;51.210;2.934;2023-04-24T06:33:03;11.90;;;5.63;;
18732;SDS011;9495;51.210;2.934;2023-04-24T06:35:46;21.03;;;7.17;;
18732;SDS011;9495;51.210;2.934;2023-04-24T06:38:14;15.50;;;6.67;;
18732;SDS011;9495;51.210;2.934;2023-04-24T06:40:43;16.97;;;7.77;;
18732;SDS011;9495;51.210;2.934;2023-04-24T06:43:12;22.87;;;7.70;;
18732;SDS011;9495;51.210;2.934;2023-04-24T06:45:42;22.20;;;8.07;;
18732;SDS011;9495;51.210;2.934;2023-04-24T06:48:12;17.07;;;6.83;;
18732;SDS011;9495;51.210;2.934;2023-04-24T06:50:40;15.90;;;7.00;;
18732;SDS011;9495;51.210;2.934;2023-04-24T06:53:09;20.77;;;7.83;;
18732;SDS011;9495;51.210;2.934;2023-04-24T06:55:39;13.97;;;5.97;;
18732;SDS011;9495;51.210;2.934;2023-04-24T06:58:07;17.00;;;6.73;;
18732;SDS011;9495;51.210;2.934;2023-04-24T07:00:36;16.33;;;6.90;;
18732;SDS011;9495;51.210;2.934;2023-04-24T07:03:05;22.60;;;5.93;;
18732;SDS011;9495;51.210;2.934;2023-04-24T07:05:34;19.13;;;7.17;;
18732;SDS011;9495;51.210;2.934;2023-04-24T07:08:04;12.03;;;5.00;;
18732;SDS011;9495;51.210;2.934;2023-04-24T07:10:35;16.23;;;5.70;;
18732;SDS011;9495;51.210;2.934;2023-04-24T07:13:03;13.37;;;5.27;;
18732;SDS011;9495;51.210;2.934;2023-04-24T07:15:33;11.37;;;4.70;;
18732;SDS011;9495;51.210;2.934;2023-04-24T07:18:02;11.80;;;4.80;;
18732;SDS011;9495;51.210;2.934;2023-04-24T07:20:32;11.57;;;3.97;;
18732;SDS011;9495;51.210;2.934;2023-04-24T07:23:01;13.07;;;4.77;;
18732;SDS011;9495;51.210;2.934;2023-04-24T07:25:30;18.47;;;5.77;;
18732;SDS011;9495;51.210;2.934;2023-04-24T07:27:59;13.83;;;3.90;;
18732;SDS011;9495;51.210;2.934;2023-04-24T07:30:27;21.00;;;6.80;;
18732;SDS011;9495;51.210;2.934;2023-04-24T07:32:56;14.07;;;6.47;;
18732;SDS011;9495;51.210;2.934;2023-04-24T07:35:25;17.73;;;7.07;;
18732;SDS011;9495;51.210;2.934;2023-04-24T07:37:55;12.67;;;6.63;;
18732;SDS011;9495;51.210;2.934;2023-04-24T07:40:23;17.63;;;6.20;;
18732;SDS011;9495;51.210;2.934;2023-04-24T07:42:52;18.40;;;7.27;;
18732;SDS011;9495;51.210;2.934;2023-04-24T07:45:20;13.40;;;5.60;;
18732;SDS011;9495;51.210;2.934;2023-04-24T07:47:50;11.70;;;4.67;;
18732;SDS011;9495;51.210;2.934;2023-04-24T07:50:18;15.07;;;6.03;;
18732;SDS011;9495;51.210;2.934;2023-04-24T07:52:47;18.37;;;7.27;;
18732;SDS011;9495;51.210;2.934;2023-04-24T07:55:17;17.57;;;6.70;;
18732;SDS011;9495;51.210;2.934;2023-04-24T07:57:49;15.30;;;6.43;;
18732;SDS011;9495;51.210;2.934;2023-04-24T08:00:17;11.97;;;6.37;;
18732;SDS011;9495;51.210;2.934;2023-04-24T08:02:46;20.07;;;7.27;;
18732;SDS011;9495;51.210;2.934;2023-04-24T08:05:15;17.40;;;6.00;;
18732;SDS011;9495;51.210;2.934;2023-04-24T08:07:44;12.13;;;5.37;;
18732;SDS011;9495;51.210;2.934;2023-04-24T08:10:16;13.53;;;6.03;;
18732;SDS011;9495;51.210;2.934;2023-04-24T08:12:44;17.47;;;6.93;;
18732;SDS011;9495;51.210;2.934;2023-04-24T08:15:13;13.30;;;6.17;;
18732;SDS011;9495;51.210;2.934;2023-04-24T08:17:41;15.00;;;6.67;;
18732;SDS011;9495;51.210;2.934;2023-04-24T08:20:10;17.90;;;6.40;;
18732;SDS011;9495;51.210;2.934;2023-04-24T08:22:41;17.53;;;6.47;;
18732;SDS011;9495;51.210;2.934;2023-04-24T08:25:10;12.87;;;6.37;;
18732;SDS011;9495;51.210;2.934;2023-04-24T08:27:40;16.90;;;5.87;;
18732;SDS011;9495;51.210;2.934;2023-04-24T08:30:09;10.63;;;4.90;;
18732;SDS011;9495;51.210;2.934;2023-04-24T08:32:38;12.10;;;5.73;;
18732;SDS011;9495;51.210;2.934;2023-04-24T08:35:06;11.63;;;5.53;;
18732;SDS011;9495;51.210;2.934;2023-04-24T08:37:36;18.40;;;6.47;;
18732;SDS011;9495;51.210;2.934;2023-04-24T08:40:06;14.03;;;5.87;;
18732;SDS011;9495;51.210;2.934;2023-04-24T08:42:40;15.40;;;6.10;;
18732;SDS011;9495;51.210;2.934;2023-04-24T08:45:11;16.97;;;6.07;;
18732;SDS011;9495;51.210;2.934;2023-04-24T08:47:40;14.80;;;6.97;;
18732;SDS011;9495;51.210;2.934;2023-04-24T08:50:10;14.90;;;6.70;;
18732;SDS011;9495;51.210;2.934;2023-04-24T08:52:39;16.20;;;6.03;;
18732;SDS011;9495;51.210;2.934;2023-04-24T08:55:09;16.33;;;6.77;;
18732;SDS011;9495;51.210;2.934;2023-04-24T08:57:37;19.17;;;6.60;;
18732;SDS011;9495;51.210;2.934;2023-04-24T09:00:08;7.07;;;4.23;;
18732;SDS011;9495;51.210;2.934;2023-04-24T09:02:39;12.10;;;4.63;;
18732;SDS011;9495;51.210;2.934;2023-04-24T09:05:10;17.00;;;5.60;;
18732;SDS011;9495;51.210;2.934;2023-04-24T09:07:39;14.13;;;5.60;;
18732;SDS011;9495;51.210;2.934;2023-04-24T09:10:12;12.37;;;5.57;;
18732;SDS011;9495;51.210;2.934;2023-04-24T09:12:40;11.43;;;5.37;;
18732;SDS011;9495;51.210;2.934;2023-04-24T09:15:12;16.07;;;5.43;;
18732;SDS011;9495;51.210;2.934;2023-04-24T09:17:41;10.30;;;4.67;;
18732;SDS011;9495;51.210;2.934;2023-04-24T09:20:11;9.83;;;3.97;;
18732;SDS011;9495;51.210;2.934;2023-04-24T09:22:39;13.53;;;3.90;;
18732;SDS011;9495;51.210;2.934;2023-04-24T09:25:09;12.33;;;4.63;;
18732;SDS011;9495;51.210;2.934;2023-04-24T09:27:41;14.13;;;4.07;;
18732;SDS011;9495;51.210;2.934;2023-04-24T09:30:12;6.87;;;2.83;;
18732;SDS011;9495;51.210;2.934;2023-04-24T09:32:41;13.70;;;3.53;;
18732;SDS011;9495;51.210;2.934;2023-04-24T09:35:10;17.03;;;4.23;;
18732;SDS011;9495;51.210;2.934;2023-04-24T09:37:40;10.70;;;3.80;;
18732;SDS011;9495;51.210;2.934;2023-04-24T09:40:14;9.10;;;3.60;;
18732;SDS011;9495;51.210;2.934;2023-04-24T09:42:44;12.13;;;3.67;;
18732;SDS011;9495;51.210;2.934;2023-04-24T09:45:14;9.80;;;3.20;;
18732;SDS011;9495;51.210;2.934;2023-04-24T09:47:43;9.77;;;3.00;;
18732;SDS011;9495;51.210;2.934;2023-04-24T09:50:13;9.40;;;3.60;;
18732;SDS011;9495;51.210;2.934;2023-04-24T09:52:43;10.97;;;2.87;;
18732;SDS011;9495;51.210;2.934;2023-04-24T09:55:16;8.07;;;3.27;;
18732;SDS011;9495;51.210;2.934;2023-04-24T09:57:52;7.37;;;2.63;;
18732;SDS011;9495;51.210;2.934;2023-04-24T10:00:24;8.97;;;2.60;;
18732;SDS011;9495;51.210;2.934;2023-04-24T10:02:56;10.77;;;3.10;;
18732;SDS011;9495;51.210;2.934;2023-04-24T10:05:29;9.87;;;3.20;;
18732;SDS011;9495;51.210;2.934;2023-04-24T10:08:02;8.47;;;3.03;;
18732;SDS011;9495;51.210;2.934;2023-04-24T10:10:35;9.00;;;2.87;;
18732;SDS011;9495;51.210;2.934;2023-04-24T10:13:06;8.10;;;3.33;;
18732;SDS011;9495;51.210;2.934;2023-04-24T10:15:36;10.33;;;3.10;;
18732;SDS011;9495;51.210;2.934;2023-04-24T10:18:06;14.53;;;3.07;;
18732;SDS011;9495;51.210;2.934;2023-04-24T10:20:36;8.33;;;3.37;;
18732;SDS011;9495;51.210;2.934;2023-04-24T10:23:06;7.83;;;2.93;;
18732;SDS011;9495;51.210;2.934;2023-04-24T10:25:35;11.80;;;2.87;;
18732;SDS011;9495;51.210;2.934;2023-04-24T10:28:04;8.77;;;2.83;;
18732;SDS011;9495;51.210;2.934;2023-04-24T10:30:37;7.60;;;2.47;;
18732;SDS011;9495;51.210;2.934;2023-04-24T10:33:10;8.57;;;2.83;;
18732;SDS011;9495;51.210;2.934;2023-04-24T10:35:40;8.43;;;2.90;;
18732;SDS011;9495;51.210;2.934;2023-04-24T10:38:11;9.60;;;2.80;;
18732;SDS011;9495;51.210;2.934;2023-04-24T10:40:41;8.03;;;2.97;;
18732;SDS011;9495;51.210;2.934;2023-04-24T10:43:10;11.13;;;3.10;;
18732;SDS011;9495;51.210;2.934;2023-04-24T10:45:59;6.20;;;2.17;;
18732;SDS011;9495;51.210;2.934;2023-04-24T10:48:29;6.10;;;2.30;;
18732;SDS011;9495;51.210;2.934;2023-04-24T10:50:58;8.93;;;2.10;;
18732;SDS011;9495;51.210;2.934;2023-04-24T10:53:27;8.63;;;2.37;;
18732;SDS011;9495;51.210;2.934;2023-04-24T10:56:02;5.90;;;2.13;;
18732;SDS011;9495;51.210;2.934;2023-04-24T10:58:41;5.27;;;2.57;;
18732;SDS011;9495;51.210;2.934;2023-04-24T11:01:24;4.88;;;2.35;;
18732;SDS011;9495;51.210;2.934;2023-04-24T11:03:54;5.57;;;2.50;;
18732;SDS011;9495;51.210;2.934;2023-04-24T11:06:30;6.00;;;2.00;;
18732;SDS011;9495;51.210;2.934;2023-04-24T11:09:03;8.33;;;2.00;;
18732;SDS011;9495;51.210;2.934;2023-04-24T11:11:33;6.40;;;2.20;;
18732;SDS011;9495;51.210;2.934;2023-04-24T11:14:04;5.73;;;2.07;;
18732;SDS011;9495;51.210;2.934;2023-04-24T11:16:43;4.90;;;2.00;;
18732;SDS011;9495;51.210;2.934;2023-04-24T11:19:20;6.77;;;1.70;;
18732;SDS011;9495;51.210;2.934;2023-04-24T11:21:54;7.50;;;2.00;;
18732;SDS011;9495;51.210;2.934;2023-04-24T11:24:26;9.23;;;2.33;;
18732;SDS011;9495;51.210;2.934;2023-04-24T11:26:57;11.57;;;2.20;;
18732;SDS011;9495;51.210;2.934;2023-04-24T11:29:41;5.47;;;2.17;;
18732;SDS011;9495;51.210;2.934;2023-04-24T11:32:16;5.47;;;1.90;;
18732;SDS011;9495;51.210;2.934;2023-04-24T11:34:46;4.10;;;1.60;;
18732;SDS011;9495;51.210;2.934;2023-04-24T11:37:16;6.00;;;2.03;;
18732;SDS011;9495;51.210;2.934;2023-04-24T11:39:44;3.93;;;1.77;;
18732;SDS011;9495;51.210;2.934;2023-04-24T11:42:13;6.83;;;1.80;;
18732;SDS011;9495;51.210;2.934;2023-04-24T11:44:43;5.13;;;2.17;;
18732;SDS011;9495;51.210;2.934;2023-04-24T11:47:13;5.93;;;1.60;;
18732;SDS011;9495;51.210;2.934;2023-04-24T11:49:43;3.57;;;1.50;;
18732;SDS011;9495;51.210;2.934;2023-04-24T11:52:15;4.43;;;1.40;;
18732;SDS011;9495;51.210;2.934;2023-04-24T11:54:48;7.23;;;2.30;;
18732;SDS011;9495;51.210;2.934;2023-04-24T11:57:18;5.97;;;1.50;;
18732;SDS011;9495;51.210;2.934;2023-04-24T11:59:48;5.13;;;1.77;;
18732;SDS011;9495;51.210;2.934;2023-04-24T12:02:21;3.60;;;1.50;;
18732;SDS011;9495;51.210;2.934;2023-04-24T12:04:51;3.77;;;1.30;;
18732;SDS011;9495;51.210;2.934;2023-04-24T12:07:20;3.10;;;1.40;;
18732;SDS011;9495;51.210;2.934;2023-04-24T12:09:50;5.13;;;1.43;;
18732;SDS011;9495;51.210;2.934;2023-04-24T12:12:24;9.17;;;1.80;;
18732;SDS011;9495;51.210;2.934;2023-04-24T12:14:54;7.10;;;1.20;;
18732;SDS011;9495;51.210;2.934;2023-04-24T12:17:26;4.83;;;1.40;;
18732;SDS011;9495;51.210;2.934;2023-04-24T12:19:57;5.83;;;1.27;;
18732;SDS011;9495;51.210;2.934;2023-04-24T12:22:27;4.37;;;1.40;;
18732;SDS011;9495;51.210;2.934;2023-04-24T12:24:59;6.30;;;1.50;;
18732;SDS011;9495;51.210;2.934;2023-04-24T12:27:30;4.47;;;1.50;;
18732;SDS011;9495;51.210;2.934;2023-04-24T12:30:00;4.13;;;1.30;;
18732;SDS011;9495;51.210;2.934;2023-04-24T12:32:31;4.70;;;1.50;;
18732;SDS011;9495;51.210;2.934;2023-04-24T12:34:59;3.90;;;1.43;;
18732;SDS011;9495;51.210;2.934;2023-04-24T12:37:33;3.53;;;1.20;;
18732;SDS011;9495;51.210;2.934;2023-04-24T12:40:03;4.17;;;1.27;;
18732;SDS011;9495;51.210;2.934;2023-04-24T12:42:34;4.50;;;1.23;;
18732;SDS011;9495;51.210;2.934;2023-04-24T12:45:09;5.10;;;1.40;;
18732;SDS011;9495;51.210;2.934;2023-04-24T12:47:40;4.37;;;1.40;;
18732;SDS011;9495;51.210;2.934;2023-04-24T12:50:09;4.43;;;1.70;;
18732;SDS011;9495;51.210;2.934;2023-04-24T12:52:38;5.77;;;2.13;;
18732;SDS011;9495;51.210;2.934;2023-04-24T12:55:07;3.27;;;1.63;;
18732;SDS011;9495;51.210;2.934;2023-04-24T12:57:36;6.63;;;2.20;;
18732;SDS011;9495;51.210;2.934;2023-04-24T13:00:06;6.37;;;2.20;;
18732;SDS011;9495;51.210;2.934;2023-04-24T13:02:35;6.67;;;2.47;;
18732;SDS011;9495;51.210;2.934;2023-04-24T13:05:06;7.20;;;2.50;;
18732;SDS011;9495;51.210;2.934;2023-04-24T13:07:34;3.23;;;1.97;;
18732;SDS011;9495;51.210;2.934;2023-04-24T13:10:03;5.67;;;2.30;;
18732;SDS011;9495;51.210;2.934;2023-04-24T13:12:32;6.20;;;1.80;;
18732;SDS011;9495;51.210;2.934;2023-04-24T13:15:01;6.83;;;2.13;;
18732;SDS011;9495;51.210;2.934;2023-04-24T13:17:29;5.87;;;1.87;;
18732;SDS011;9495;51.210;2.934;2023-04-24T13:19:58;5.20;;;2.13;;
18732;SDS011;9495;51.210;2.934;2023-04-24T13:22:27;4.90;;;2.10;;
18732;SDS011;9495;51.210;2.934;2023-04-24T13:24:56;5.43;;;2.30;;
18732;SDS011;9495;51.210;2.934;2023-04-24T13:27:24;5.37;;;2.20;;
18732;SDS011;9495;51.210;2.934;2023-04-24T13:29:52;4.20;;;2.23;;
18732;SDS011;9495;51.210;2.934;2023-04-24T13:32:21;5.00;;;2.40;;
18732;SDS011;9495;51.210;2.934;2023-04-24T13:34:49;4.60;;;2.73;;
18732;SDS011;9495;51.210;2.934;2023-04-24T13:37:17;8.30;;;2.57;;
18732;SDS011;9495;51.210;2.934;2023-04-24T13:39:47;8.30;;;2.73;;
18732;SDS011;9495;51.210;2.934;2023-04-24T13:42:17;4.07;;;1.90;;
18732;SDS011;9495;51.210;2.934;2023-04-24T13:44:46;6.70;;;2.30;;
18732;SDS011;9495;51.210;2.934;2023-04-24T13:47:14;7.63;;;2.40;;
18732;SDS011;9495;51.210;2.934;2023-04-24T13:49:43;5.23;;;2.40;;
18732;SDS011;9495;51.210;2.934;2023-04-24T13:52:11;4.80;;;2.33;;
18732;SDS011;9495;51.210;2.934;2023-04-24T13:54:40;5.10;;;2.37;;
18732;SDS011;9495;51.210;2.934;2023-04-24T13:57:09;6.63;;;2.57;;
18732;SDS011;9495;51.210;2.934;2023-04-24T13:59:38;4.13;;;2.10;;
18732;SDS011;9495;51.210;2.934;2023-04-24T14:02:07;4.87;;;2.50;;
18732;SDS011;9495;51.210;2.934;2023-04-24T14:04:35;4.50;;;2.43;;
18732;SDS011;9495;51.210;2.934;2023-04-24T14:07:04;6.43;;;2.70;;
18732;SDS011;9495;51.210;2.934;2023-04-24T14:09:34;6.93;;;2.80;;
18732;SDS011;9495;51.210;2.934;2023-04-24T14:12:02;8.23;;;2.73;;
18732;SDS011;9495;51.210;2.934;2023-04-24T14:14:33;8.43;;;2.43;;
18732;SDS011;9495;51.210;2.934;2023-04-24T14:17:01;5.03;;;2.37;;
18732;SDS011;9495;51.210;2.934;2023-04-24T14:19:29;5.23;;;2.20;;
18732;SDS011;9495;51.210;2.934;2023-04-24T14:21:58;7.67;;;2.70;;
18732;SDS011;9495;51.210;2.934;2023-04-24T14:24:27;7.43;;;2.70;;
18732;SDS011;9495;51.210;2.934;2023-04-24T14:26:55;6.63;;;2.63;;
18732;SDS011;9495;51.210;2.934;2023-04-24T14:29:24;5.13;;;2.30;;
18732;SDS011;9495;51.210;2.934;2023-04-24T14:31:54;7.10;;;2.63;;
18732;SDS011;9495;51.210;2.934;2023-04-24T14:34:22;6.00;;;2.83;;
18732;SDS011;9495;51.210;2.934;2023-04-24T14:36:52;6.07;;;2.53;;
18732;SDS011;9495;51.210;2.934;2023-04-24T14:39:20;5.27;;;2.10;;
18732;SDS011;9495;51.210;2.934;2023-04-24T14:41:49;5.43;;;2.27;;
18732;SDS011;9495;51.210;2.934;2023-04-24T14:44:17;4.33;;;2.30;;
18732;SDS011;9495;51.210;2.934;2023-04-24T14:46:45;8.50;;;2.57;;
18732;SDS011;9495;51.210;2.934;2023-04-24T14:49:15;4.90;;;2.30;;
18732;SDS011;9495;51.210;2.934;2023-04-24T14:51:44;7.93;;;2.77;;
18732;SDS011;9495;51.210;2.934;2023-04-24T14:54:12;4.90;;;2.70;;
18732;SDS011;9495;51.210;2.934;2023-04-24T14:56:41;4.67;;;2.67;;
18732;SDS011;9495;51.210;2.934;2023-04-24T14:59:10;6.53;;;2.30;;
18732;SDS011;9495;51.210;2.934;2023-04-24T15:01:39;7.03;;;3.10;;
18732;SDS011;9495;51.210;2.934;2023-04-24T15:04:07;5.27;;;2.30;;